Archival Weather

Chicago O'Hare International

Chicago, Illinois (KORD)

Report from: Wednesday, August 23, 2023 3:51 PM CDT
Current time: Friday, April 19, 2024 5:37 AM CDT

Current weather – Weather history – Daily summaries
Weather forecast

Temperature36.7°C (98.1°F)
Heat index44.0°C (111.3°F)
Dew point23.9°C (75.0°F)
Winds 16 kts (8.2 m/s, 18.4 mph) West (260°)
Wind gusts 23 kts (11.8 m/s, 26.5 mph)
Visibility10 mi. (16.1 km)
Clouds Scattered clouds 25,000 ft. (7,620 m)
Altimeter29.88 in.Hg (1012 mB)
Relative humidity48 %
Density altitude2,925 ft. (892 m)
Sea-level pressure101.1 kPa (1011 mB, 29.85 in.Hg)
Remarks Automated weather observing station with precipitation discriminator
Pressure falling more slowly
Flight conditions Visual Meteorological Conditions
Raw dataKORD 232051Z 26016G23KT 10SM SCT250 37/24 A2988 RMK AO2 SLP110 T03670239 56017
An error has occurred. This application may no longer respond until reloaded. Reload 🗙